WXM80 ListenWXM80 Stop

You find our weather info also at:

UK Metoffice

WeatherCloud

Weather Underground

Northeastern Weather Network

AWEKAS

Citizen Weather Observer Program (CWOP)

HAMweather, WeatherForYou, PWS Weather


Weather Underground History page Text

Daily Summary for February 4, 2016 Units:  English    Metric   Both
« Previous Day
Next Day »
Daily Weekly Monthly Yearly Custom
  High: Low: Average:
Temperature: 55.2 °F 41.2 °F 50.4 °F
Dew Point: 54.4 °F 35.0 °F 45.6 °F
Humidity: 97 % 65 % 84 %
Wind Speed: 8.4 mph 0.0 mph 2.9 mph
Wind Gust: 12.7 mph - -
Wind:- - SSW
Pressure: 30.07 in 29.84 in -
Precipitation: 0.17 in    
Historical Graphs
 
 
Tabular Data for February 4, 2016
Time Temperature Dew Point Pressure Wind Wind Speed Wind Gust Humidity Rainfall Rate (Hourly)
00:04 54.5 °F 52.8 °F 29.87 in SW 0.3 mph 1.2 mph 94 % 0.02 in
00:10 54.4 °F 52.7 °F 29.87 in West 2.1 mph 3.5 mph 94 % 0.02 in
00:15 54.3 °F 52.6 °F 29.87 in WSW 0.7 mph 3.5 mph 94 % 0.01 in
00:25 54.0 °F 52.3 °F 29.87 in SW 0.3 mph 3.5 mph 94 % 0.02 in
00:35 53.9 °F 52.2 °F 29.88 in SW 3.2 mph 6.0 mph 94 % 0.02 in
00:40 53.7 °F 52.0 °F 29.88 in SW 4.8 mph 6.9 mph 94 % 0.02 in
00:45 53.6 °F 51.9 °F 29.88 in WSW 0.3 mph 4.0 mph 94 % 0.02 in
00:50 53.5 °F 51.8 °F 29.88 in WSW 1.4 mph 3.5 mph 94 % 0.01 in
00:55 53.4 °F 52.0 °F 29.88 in SSW 2.9 mph 4.0 mph 95 % 0.01 in
01:01 53.3 °F 51.9 °F 29.88 in WSW 5.4 mph 7.0 mph 95 % 0.02 in
01:06 53.4 °F 52.0 °F 29.89 in SW 4.9 mph 5.8 mph 95 % 0.02 in
01:11 53.4 °F 52.3 °F 29.89 in WSW 0.9 mph 5.8 mph 96 % 0.02 in
01:16 53.5 °F 52.4 °F 29.89 in South 2.3 mph 6.0 mph 96 % 0.02 in
01:21 53.5 °F 52.4 °F 29.89 in SW 3.9 mph 5.8 mph 96 % 0.01 in
01:26 53.6 °F 52.5 °F 29.89 in SSW 3.1 mph 4.6 mph 96 % 0.01 in
01:31 53.6 °F 52.5 °F 29.89 in SSW 3.1 mph 4.0 mph 96 % 0.01 in
01:36 53.7 °F 52.6 °F 29.88 in SW 4.5 mph 6.0 mph 96 % 0.02 in
01:41 53.8 °F 52.7 °F 29.88 in SW 2.1 mph 4.6 mph 96 % 0.02 in
01:52 53.8 °F 52.7 °F 29.89 in SW 2.5 mph 5.8 mph 96 % 0.02 in
02:02 53.9 °F 52.8 °F 29.88 in SW 0.8 mph 4.0 mph 96 % 0.01 in
02:07 53.9 °F 52.8 °F 29.88 in SW 1.5 mph 3.5 mph 96 % 0.01 in
02:12 54.0 °F 52.9 °F 29.88 in SSW 1.4 mph 4.0 mph 96 % 0.01 in
02:17 54.1 °F 53.0 °F 29.88 in SSW 4.2 mph 7.0 mph 96 % 0.01 in
02:22 54.2 °F 53.4 °F 29.88 in SW 4.3 mph 5.8 mph 97 % 0.02 in
02:27 54.4 °F 53.6 °F 29.87 in SSW 1.8 mph 8.1 mph 97 % 0.02 in
02:32 54.6 °F 53.8 °F 29.87 in WSW 4.3 mph 7.0 mph 97 % 0.02 in
02:43 54.8 °F 54.0 °F 29.87 in SSW 2.7 mph 7.0 mph 97 % 0.01 in
02:48 54.9 °F 54.1 °F 29.87 in SSW 2.7 mph 5.8 mph 97 % 0.01 in
02:53 55.0 °F 54.2 °F 29.87 in SW 5.4 mph 8.1 mph 97 % 0.01 in
02:58 55.0 °F 54.2 °F 29.87 in SSW 4.7 mph 8.1 mph 97 % 0.02 in
03:03 55.1 °F 54.3 °F 29.87 in SW 3.1 mph 4.6 mph 97 % 0.02 in
03:08 55.1 °F 54.3 °F 29.87 in SSW 4.5 mph 9.2 mph 97 % 0.02 in
03:13 55.2 °F 54.4 °F 29.86 in SW 1.8 mph 3.5 mph 97 % 0.02 in
03:23 55.2 °F 54.4 °F 29.85 in SW 1.0 mph 3.5 mph 97 % 0.01 in
03:28 55.2 °F 54.4 °F 29.86 in West 1.2 mph 2.3 mph 97 % 0.01 in
03:34 55.2 °F 54.4 °F 29.86 in WSW 0.7 mph 2.3 mph 97 % 0.01 in
03:39 55.1 °F 54.3 °F 29.85 in Calm   1.2 mph 97 % 0.01 in
03:44 55.1 °F 54.3 °F 29.85 in WSW 0.1 mph 1.0 mph 97 % 0.01 in
03:49 55.1 °F 54.3 °F 29.85 in SW 1.2 mph 2.3 mph 97 % 0.02 in
03:54 55.1 °F 54.0 °F 29.85 in Calm   1.2 mph 96 % 0.02 in
03:59 55.1 °F 54.0 °F 29.85 in Calm   1.2 mph 96 % 0.01 in
04:04 55.0 °F 53.9 °F 29.86 in SSW 0.3 mph 2.3 mph 96 % 0.01 in
04:09 55.0 °F 53.9 °F 29.85 in SSW 1.0 mph 3.5 mph 96 % 0.01 in
04:14 55.0 °F 53.9 °F 29.86 in South 0.2 mph 1.2 mph 96 % 0.01 in
04:19 54.9 °F 53.8 °F 29.85 in South 0.4 mph 3.5 mph 96 % 0.01 in
04:25 54.9 °F 53.8 °F 29.85 in SSW 0.7 mph 3.5 mph 96 % 0.01 in
04:30 54.8 °F 53.7 °F 29.85 in SSE 0.8 mph 3.5 mph 96 % 0.02 in
04:35 54.7 °F 53.6 °F 29.85 in SSE 0.6 mph 3.0 mph 96 % 0.02 in
04:40 54.7 °F 53.6 °F 29.85 in Calm   1.2 mph 96 % 0.02 in
04:45 54.7 °F 53.6 °F 29.85 in SSE 0.7 mph 2.3 mph 96 % 0.02 in
04:50 54.6 °F 53.5 °F 29.85 in South 1.4 mph 3.5 mph 96 % 0.01 in
04:55 54.5 °F 53.4 °F 29.85 in South 0.9 mph 3.5 mph 96 % 0.01 in
05:00 54.4 °F 53.3 °F 29.84 in SSE 0.9 mph 3.5 mph 96 % 0.02 in
05:05 54.3 °F 53.2 °F 29.85 in Calm     96 % 0.02 in
05:10 54.2 °F 53.1 °F 29.85 in South 0.4 mph 3.0 mph 96 % 0.02 in
05:16 54.1 °F 53.0 °F 29.85 in South 1.9 mph 3.5 mph 96 % 0.03 in
05:21 54.0 °F 52.9 °F 29.85 in SSW 0.3 mph 3.5 mph 96 % 0.03 in
05:26 53.8 °F 52.7 °F 29.85 in SSW 1.8 mph 4.6 mph 96 % 0.02 in
05:31 53.7 °F 52.6 °F 29.84 in SSW 2.7 mph 3.5 mph 96 % 0.02 in
05:41 53.5 °F 52.4 °F 29.84 in SSW 2.1 mph 3.5 mph 96 % 0.03 in
05:46 53.4 °F 52.3 °F 29.84 in SSW 0.3 mph 2.0 mph 96 % 0.03 in
05:51 53.3 °F 52.2 °F 29.84 in Calm   1.2 mph 96 % 0.04 in
05:56 53.3 °F 52.2 °F 29.84 in Calm     96 % 0.04 in
06:02 53.3 °F 52.2 °F 29.84 in Calm   2.3 mph 96 % 0.03 in
06:07 53.3 °F 52.2 °F 29.84 in Calm   1.2 mph 96 % 0.03 in
06:12 53.3 °F 52.2 °F 29.84 in SSW 0.2 mph 1.2 mph 96 % 0.03 in
06:17 53.3 °F 52.2 °F 29.84 in SSW 0.7 mph 2.3 mph 96 % 0.03 in
06:22 53.3 °F 52.2 °F 29.85 in SSW 0.7 mph 3.0 mph 96 % 0.03 in
06:27 53.4 °F 52.3 °F 29.85 in South 0.4 mph 2.3 mph 96 % 0.03 in
06:32 53.5 °F 52.7 °F 29.85 in WSW 1.7 mph 3.5 mph 97 % 0.03 in
06:37 53.7 °F 52.9 °F 29.85 in Calm   3.5 mph 97 % 0.03 in
06:42 53.8 °F 53.0 °F 29.85 in SSW 1.2 mph 4.0 mph 97 % 0.03 in
06:47 53.9 °F 53.1 °F 29.86 in SSW 0.4 mph 2.3 mph 97 % 0.03 in
06:53 54.0 °F 53.2 °F 29.86 in SSW 0.2 mph 2.0 mph 97 % 0.02 in
06:58 54.1 °F 53.3 °F 29.86 in WSW 3.3 mph 6.0 mph 97 % 0.02 in
07:03 54.2 °F 53.4 °F 29.87 in SSW 1.7 mph 3.5 mph 97 % 0.02 in
07:13 54.1 °F 53.3 °F 29.87 in SSW 1.4 mph 3.5 mph 97 % 0.03 in
07:18 53.9 °F 53.1 °F 29.88 in SSW 3.8 mph 5.8 mph 97 % 0.02 in
07:23 53.9 °F 53.1 °F 29.88 in SW 1.8 mph 3.5 mph 97 % 0.02 in
07:28 53.8 °F 53.0 °F 29.88 in SW 3.1 mph 4.0 mph 97 % 0.02 in
07:33 53.7 °F 52.9 °F 29.88 in WSW 1.1 mph 3.5 mph 97 % 0.03 in
07:38 53.6 °F 52.8 °F 29.88 in WSW 3.0 mph 4.0 mph 97 % 0.02 in
07:44 53.6 °F 52.8 °F 29.89 in WSW 2.0 mph 5.8 mph 97 % 0.02 in
07:49 53.5 °F 52.7 °F 29.89 in WSW 1.5 mph 4.6 mph 97 % 0.02 in
07:54 53.5 °F 52.7 °F 29.90 in SW 1.8 mph 4.6 mph 97 % 0.02 in
07:59 53.4 °F 52.6 °F 29.90 in SW 0.1 mph 1.2 mph 97 % 0.02 in
08:04 53.4 °F 52.6 °F 29.90 in SW 2.3 mph 3.5 mph 97 % 0.01 in
08:09 53.4 °F 52.6 °F 29.90 in WSW 2.0 mph 3.5 mph 97 % 0.01 in
08:19 53.5 °F 52.7 °F 29.90 in West 0.3 mph 2.3 mph 97 % 0.01 in
08:24 53.5 °F 52.7 °F 29.90 in SW 1.5 mph 3.5 mph 97 % 0.01 in
08:29 53.5 °F 52.7 °F 29.90 in WSW 1.0 mph 2.3 mph 97 % 0.01 in
08:35 53.6 °F 52.8 °F 29.91 in SW 1.0 mph 3.5 mph 97 % 0.01 in
08:40 53.7 °F 52.9 °F 29.92 in SW 3.9 mph 6.0 mph 97 % 0.01 in
08:50 53.8 °F 53.0 °F 29.94 in WSW 4.1 mph 11.5 mph 97 % 0.01 in
08:55 53.7 °F 52.9 °F 29.94 in WSW 2.1 mph 8.1 mph 97 % 0.01 in
09:00 53.5 °F 52.7 °F 29.94 in WSW 7.9 mph 12.0 mph 97 % 0.01 in
09:05 53.2 °F 52.1 °F 29.95 in West 7.0 mph 12.7 mph 96 % 0.01 in
09:10 53.0 °F 51.9 °F 29.95 in WNW 4.7 mph 5.0 mph 96 % 0.01 in
09:15 52.6 °F 51.2 °F 29.95 in NW 4.7 mph 11.5 mph 95 % 0.01 in
09:20 52.2 °F 50.2 °F 29.95 in WSW 4.1 mph 8.1 mph 93 % 0.01 in
09:26 51.9 °F 49.9 °F 29.97 in WNW 5.3 mph 9.2 mph 93 % 0.01 in
09:31 51.7 °F 49.7 °F 29.96 in WNW 4.6 mph 10.4 mph 93 % 0.01 in
09:36 51.5 °F 49.3 °F 29.97 in WNW 2.9 mph 9.2 mph 92 % 0.00 in
09:41 51.3 °F 49.1 °F 29.97 in NW 6.0 mph 9.2 mph 92 % 0.00 in
09:46 51.1 °F 48.9 °F 29.97 in NW 2.6 mph 5.8 mph 92 % 0.00 in
09:51 51.0 °F 48.8 °F 29.98 in NNE 2.3 mph 5.8 mph 92 % 0.00 in
09:56 50.8 °F 48.0 °F 29.97 in NW 1.2 mph 3.5 mph 90 % 0.00 in
10:01 50.6 °F 47.8 °F 29.98 in NW 1.4 mph 3.5 mph 90 % 0.00 in
10:06 50.5 °F 48.0 °F 29.99 in WNW 0.4 mph 1.0 mph 91 % 0.00 in
10:11 50.4 °F 47.6 °F 29.99 in NW 0.9 mph 5.8 mph 90 % 0.00 in
10:17 50.4 °F 47.6 °F 29.99 in WNW 2.1 mph 4.6 mph 90 % 0.00 in
10:22 50.4 °F 47.3 °F 29.99 in WNW 2.5 mph 3.5 mph 89 % 0.00 in
10:27 50.5 °F 47.1 °F 29.99 in WNW 2.9 mph 4.6 mph 88 % 0.00 in
10:32 50.6 °F 47.5 °F 29.99 in NW 2.6 mph 5.8 mph 89 % 0.00 in
10:37 50.8 °F 47.4 °F 29.99 in NNW 2.4 mph 4.6 mph 88 % 0.00 in
10:42 50.9 °F 47.2 °F 29.99 in NW 3.4 mph 5.8 mph 87 % 0.00 in
10:47 51.0 °F 47.3 °F 29.99 in NW 2.2 mph 4.6 mph 87 % 0.00 in
10:52 51.0 °F 47.0 °F 30.00 in NW 5.1 mph 9.2 mph 86 % 0.00 in
10:57 51.0 °F 46.6 °F 29.99 in WNW 3.4 mph 6.0 mph 85 % 0.00 in
11:02 51.2 °F 46.8 °F 29.99 in WNW 2.7 mph 6.9 mph 85 % 0.00 in
11:08 51.3 °F 46.3 °F 29.99 in WNW 4.3 mph 10.4 mph 83 % 0.00 in
11:13 51.5 °F 46.2 °F 29.98 in NNW 3.4 mph 10.4 mph 82 % 0.00 in
11:18 51.6 °F 46.0 °F 29.98 in WNW 5.1 mph 9.2 mph 81 % 0.00 in
11:23 51.6 °F 46.0 °F 29.98 in NW 2.3 mph 6.9 mph 81 % 0.00 in
11:28 51.6 °F 46.0 °F 29.99 in NW 5.4 mph 8.1 mph 81 % 0.00 in
11:33 51.5 °F 45.5 °F 29.99 in WNW 3.1 mph 3.5 mph 80 % 0.00 in
11:38 51.5 °F 44.9 °F 29.99 in WSW 3.3 mph 5.8 mph 78 % 0.00 in
11:43 51.5 °F 45.2 °F 29.98 in WNW 3.2 mph 3.5 mph 79 % 0.00 in
11:48 51.7 °F 45.1 °F 29.98 in NW 2.8 mph 6.9 mph 78 % 0.00 in
11:53 51.9 °F 44.9 °F 29.98 in NW 3.8 mph 4.6 mph 77 % 0.00 in
11:59 52.0 °F 44.3 °F 29.98 in West 4.0 mph 8.1 mph 75 % 0.00 in
12:04 52.1 °F 43.7 °F 29.98 in WSW 3.8 mph 6.9 mph 73 % 0.00 in
12:09 52.1 °F 43.3 °F 29.98 in NW 3.8 mph 6.0 mph 72 % 0.00 in
12:19 52.0 °F 43.3 °F 29.98 in West 4.4 mph 6.9 mph 72 % 0.00 in
12:24 52.1 °F 43.3 °F 29.98 in WNW 4.2 mph 7.0 mph 72 % 0.00 in
12:29 52.2 °F 43.4 °F 29.97 in NW 0.7 mph 3.5 mph 72 % 0.00 in
12:34 52.3 °F 43.5 °F 29.97 in NW 2.0 mph 4.6 mph 72 % 0.00 in
12:39 52.4 °F 42.9 °F 29.97 in NW 5.4 mph 6.9 mph 70 % 0.00 in
12:44 52.5 °F 43.0 °F 29.97 in NW 2.4 mph 5.8 mph 70 % 0.00 in
12:50 52.4 °F 42.9 °F 29.96 in WNW 2.6 mph 4.6 mph 70 % 0.00 in
12:55 52.3 °F 42.4 °F 29.97 in WNW 3.4 mph 6.0 mph 69 % 0.00 in
13:00 52.2 °F 42.3 °F 29.97 in NW 3.4 mph 5.8 mph 69 % 0.00 in
13:05 52.1 °F 42.2 °F 29.97 in WNW 2.4 mph 4.0 mph 69 % 0.00 in
13:10 52.0 °F 41.8 °F 29.97 in WNW 3.1 mph 5.8 mph 68 % 0.00 in
13:15 51.9 °F 41.7 °F 29.97 in NW 4.0 mph 5.0 mph 68 % 0.00 in
13:20 51.9 °F 42.0 °F 29.97 in NNW 2.2 mph 4.6 mph 69 % 0.00 in
13:25 51.8 °F 41.9 °F 29.97 in NNW 1.5 mph 3.5 mph 69 % 0.00 in
13:30 51.8 °F 42.3 °F 29.97 in WNW 3.2 mph 6.0 mph 70 % 0.00 in
13:35 51.8 °F 41.9 °F 29.97 in WNW 2.2 mph 3.5 mph 69 % 0.00 in
13:41 51.7 °F 42.2 °F 29.98 in WNW 2.0 mph 3.5 mph 70 % 0.00 in
13:46 51.5 °F 41.7 °F 29.99 in WSW 3.7 mph 5.8 mph 69 % 0.00 in
13:51 51.4 °F 41.9 °F 29.98 in SW 1.9 mph 4.6 mph 70 % 0.00 in
13:56 51.3 °F 41.5 °F 29.98 in WNW 3.3 mph 8.1 mph 69 % 0.00 in
14:01 51.3 °F 41.1 °F 29.97 in WNW 4.2 mph 8.1 mph 68 % 0.00 in
14:06 51.3 °F 40.7 °F 29.98 in WNW 2.9 mph 6.0 mph 67 % 0.00 in
14:11 51.3 °F 40.7 °F 29.98 in West 2.3 mph 4.6 mph 67 % 0.00 in
14:16 51.4 °F 41.2 °F 29.98 in West 1.6 mph 4.6 mph 68 % 0.00 in
14:21 51.5 °F 40.9 °F 29.98 in WSW 4.3 mph 8.1 mph 67 % 0.00 in
14:26 51.5 °F 41.3 °F 29.98 in WNW 0.9 mph 3.5 mph 68 % 0.00 in
14:32 51.5 °F 40.9 °F 29.98 in WSW 0.7 mph 4.6 mph 67 % 0.00 in
14:37 51.5 °F 40.5 °F 29.99 in West 2.8 mph 4.6 mph 66 % 0.00 in
14:42 51.4 °F 40.4 °F 29.99 in West 0.8 mph 3.0 mph 66 % 0.00 in
14:47 51.4 °F 40.0 °F 29.98 in West 4.9 mph 10.4 mph 65 % 0.00 in
14:52 51.2 °F 40.2 °F 29.98 in WSW 2.7 mph 6.0 mph 66 % 0.00 in
14:57 51.2 °F 40.2 °F 29.97 in SW 2.6 mph 4.6 mph 66 % 0.00 in
15:02 51.1 °F 40.1 °F 29.97 in NNW 2.0 mph 4.6 mph 66 % 0.00 in
15:07 51.0 °F 40.0 °F 29.98 in West 2.5 mph 4.6 mph 66 % 0.00 in
15:12 51.0 °F 40.4 °F 29.97 in WNW 3.3 mph 3.5 mph 67 % 0.00 in
15:23 50.9 °F 40.3 °F 29.97 in NW 1.6 mph 4.6 mph 67 % 0.00 in
15:28 50.8 °F 40.2 °F 29.97 in NW 1.7 mph 3.5 mph 67 % 0.00 in
15:33 50.8 °F 39.8 °F 29.97 in NW 2.4 mph 3.5 mph 66 % 0.00 in
15:43 50.5 °F 39.9 °F 29.97 in NNW 2.3 mph 3.5 mph 67 % 0.00 in
15:48 50.4 °F 39.9 °F 29.98 in WNW 1.3 mph 3.5 mph 67 % 0.00 in
15:53 50.2 °F 40.0 °F 29.97 in WNW 3.9 mph 5.8 mph 68 % 0.00 in
15:58 50.1 °F 39.9 °F 29.98 in WNW 2.6 mph 3.5 mph 68 % 0.00 in
16:03 49.9 °F 40.1 °F 29.98 in WNW 1.9 mph 3.5 mph 69 % 0.00 in
16:08 49.8 °F 40.4 °F 29.99 in WNW 2.1 mph 3.0 mph 70 % 0.00 in
16:14 49.6 °F 40.9 °F 30.00 in WNW 0.9 mph 3.5 mph 72 % 0.00 in
16:24 49.3 °F 41.0 °F 30.00 in WNW 0.7 mph 2.3 mph 73 % 0.00 in
16:29 49.1 °F 41.2 °F 30.00 in North 1.9 mph 3.5 mph 74 % 0.00 in
16:39 48.9 °F 41.7 °F 30.00 in North 0.7 mph 3.5 mph 76 % 0.00 in
16:44 48.8 °F 41.6 °F 30.00 in NNE 1.0 mph 2.3 mph 76 % 0.00 in
16:49 48.7 °F 41.5 °F 30.00 in NNE 2.5 mph 5.0 mph 76 % 0.00 in
16:54 48.6 °F 41.7 °F 30.00 in NE 0.1 mph 1.2 mph 77 % 0.00 in
16:59 48.4 °F 41.5 °F 30.01 in NE 3.0 mph 5.8 mph 77 % 0.00 in
17:05 48.1 °F 41.6 °F 30.01 in NE 0.6 mph 2.0 mph 78 % 0.00 in
17:10 47.9 °F 41.7 °F 30.03 in NE 1.4 mph 3.0 mph 79 % 0.00 in
17:15 47.7 °F 41.2 °F 30.03 in East 1.8 mph 5.8 mph 78 % 0.00 in
17:20 47.6 °F 41.1 °F 30.03 in North 2.0 mph 3.5 mph 78 % 0.00 in
17:25 47.4 °F 40.6 °F 30.04 in NE 2.0 mph 3.5 mph 77 % 0.00 in
17:30 47.3 °F 40.5 °F 30.04 in ENE 1.8 mph 3.5 mph 77 % 0.00 in
17:35 47.2 °F 40.4 °F 30.05 in NE 2.6 mph 3.5 mph 77 % 0.00 in
17:40 47.2 °F 40.4 °F 30.04 in North 3.6 mph 6.0 mph 77 % 0.00 in
17:50 47.1 °F 39.6 °F 30.02 in North 8.4 mph 9.2 mph 75 % 0.00 in
17:56 47.2 °F 39.0 °F 30.02 in NNE 6.2 mph 11.5 mph 73 % 0.00 in
18:01 47.3 °F 39.1 °F 30.03 in NNE 5.9 mph 10.4 mph 73 % 0.00 in
18:06 47.4 °F 39.5 °F 30.04 in North 5.2 mph 8.1 mph 74 % 0.00 in
18:11 47.4 °F 39.2 °F 30.03 in NNE 8.1 mph 11.5 mph 73 % 0.00 in
18:16 47.4 °F 39.2 °F 30.03 in NNE 6.2 mph 10.4 mph 73 % 0.00 in
18:21 47.3 °F 39.1 °F 30.05 in NNE 3.5 mph 8.1 mph 73 % 0.00 in
18:26 47.4 °F 38.8 °F 30.04 in NNE 5.6 mph 9.2 mph 72 % 0.00 in
18:36 47.4 °F 38.8 °F 30.06 in NNE 3.2 mph 7.0 mph 72 % 0.00 in
18:42 47.4 °F 38.8 °F 30.04 in ENE 5.6 mph 8.1 mph 72 % 0.00 in
18:47 47.4 °F 38.8 °F 30.04 in North 4.5 mph 8.1 mph 72 % 0.00 in
18:52 47.3 °F 39.4 °F 30.05 in North 5.2 mph 6.9 mph 74 % 0.00 in
18:57 47.2 °F 39.3 °F 30.04 in NNE 6.9 mph 10.0 mph 74 % 0.00 in
19:07 46.8 °F 39.6 °F 30.04 in NE 5.3 mph 6.9 mph 76 % 0.00 in
19:12 46.5 °F 39.7 °F 30.05 in NNW 2.0 mph 4.6 mph 77 % 0.00 in
19:17 46.3 °F 39.1 °F 30.06 in NNE 5.7 mph 8.1 mph 76 % 0.00 in
19:22 46.2 °F 39.1 °F 30.05 in North 5.9 mph 7.0 mph 76 % 0.00 in
19:27 46.1 °F 39.0 °F 30.05 in NE 4.0 mph 6.0 mph 76 % 0.00 in
19:38 45.8 °F 39.0 °F 30.05 in NE 6.5 mph 9.2 mph 77 % 0.00 in
19:48 45.5 °F 39.0 °F 30.05 in NNE 3.5 mph 6.9 mph 78 % 0.00 in
19:53 45.3 °F 39.2 °F 30.05 in NNE 5.3 mph 8.0 mph 79 % 0.00 in
19:58 45.1 °F 39.0 °F 30.04 in NNE 4.7 mph 9.0 mph 79 % 0.00 in
20:03 44.8 °F 39.0 °F 30.04 in NNE 4.8 mph 8.1 mph 80 % 0.00 in
20:08 44.7 °F 38.9 °F 30.04 in NNE 1.9 mph 6.9 mph 80 % 0.00 in
20:13 44.5 °F 39.0 °F 30.04 in NNE 2.9 mph 5.8 mph 81 % 0.00 in
20:18 44.4 °F 38.9 °F 30.04 in NE 4.2 mph 6.9 mph 81 % 0.00 in
20:24 44.3 °F 38.5 °F 30.03 in NNE 5.2 mph 6.0 mph 80 % 0.00 in
20:29 44.2 °F 38.4 °F 30.03 in NE 5.1 mph 9.2 mph 80 % 0.00 in
20:34 44.1 °F 38.3 °F 30.03 in NNE 4.7 mph 9.0 mph 80 % 0.00 in
20:39 44.1 °F 38.0 °F 30.04 in ENE 4.8 mph 9.2 mph 79 % 0.00 in
20:44 44.1 °F 38.3 °F 30.03 in NE 3.5 mph 5.8 mph 80 % 0.00 in
20:49 44.0 °F 38.2 °F 30.03 in NNE 2.5 mph 4.6 mph 80 % 0.00 in
20:59 43.9 °F 38.1 °F 30.04 in North 6.0 mph 7.0 mph 80 % 0.00 in
21:04 43.9 °F 38.1 °F 30.05 in NNE 3.7 mph 4.6 mph 80 % 0.00 in
21:09 43.8 °F 37.7 °F 30.05 in NNE 5.3 mph 8.1 mph 79 % 0.00 in
21:20 43.8 °F 37.4 °F 30.06 in NNE 2.8 mph 6.9 mph 78 % 0.00 in
21:25 43.8 °F 37.1 °F 30.06 in NE 2.0 mph 4.6 mph 77 % 0.00 in
21:30 43.8 °F 37.1 °F 30.07 in North 1.5 mph 3.5 mph 77 % 0.00 in
21:40 43.7 °F 37.3 °F 30.05 in NE 3.2 mph 5.0 mph 78 % 0.00 in
21:45 43.6 °F 37.2 °F 30.06 in NNE 4.5 mph 6.9 mph 78 % 0.00 in
21:50 43.4 °F 36.0 °F 30.06 in NE 6.5 mph 8.1 mph 75 % 0.00 in
21:55 43.4 °F 36.0 °F 30.05 in NNE 4.2 mph 8.1 mph 75 % 0.00 in
22:00 43.3 °F 35.9 °F 30.06 in NNE 5.8 mph 9.2 mph 75 % 0.00 in
22:06 43.2 °F 35.8 °F 30.06 in NE 7.2 mph 10.0 mph 75 % 0.00 in
22:11 43.1 °F 35.7 °F 30.06 in NNE 4.8 mph 8.1 mph 75 % 0.00 in
22:16 43.0 °F 36.0 °F 30.07 in North 3.4 mph 5.8 mph 76 % 0.00 in
22:21 42.9 °F 36.2 °F 30.06 in North 5.1 mph 10.4 mph 77 % 0.00 in
22:26 42.8 °F 36.1 °F 30.05 in ENE 4.9 mph 7.0 mph 77 % 0.00 in
22:31 42.6 °F 36.2 °F 30.06 in North 5.4 mph 7.0 mph 78 % 0.00 in
22:36 42.4 °F 36.0 °F 30.05 in NNE 7.2 mph 9.2 mph 78 % 0.00 in
22:41 42.2 °F 36.2 °F 30.06 in North 4.1 mph 4.6 mph 79 % 0.00 in
22:46 42.1 °F 36.4 °F 30.07 in NNW 3.0 mph 6.9 mph 80 % 0.00 in
22:51 41.9 °F 36.2 °F 30.06 in NNE 5.1 mph 5.8 mph 80 % 0.00 in
22:57 41.8 °F 35.8 °F 30.05 in NE 6.4 mph 8.1 mph 79 % 0.00 in
23:02 41.6 °F 35.6 °F 30.06 in North 7.5 mph 10.4 mph 79 % 0.00 in
23:07 41.5 °F 35.8 °F 30.05 in NE 5.7 mph 10.4 mph 80 % 0.01 in
23:12 41.4 °F 36.0 °F 30.05 in NNE 5.8 mph 8.1 mph 81 % 0.01 in
23:17 41.3 °F 35.9 °F 30.06 in North 4.3 mph 5.8 mph 81 % 0.01 in
23:22 41.2 °F 35.8 °F 30.05 in North 3.5 mph 5.0 mph 81 % 0.01 in
23:27 41.2 °F 35.5 °F 30.05 in NNE 3.5 mph 5.0 mph 80 % 0.01 in
23:32 41.2 °F 35.5 °F 30.05 in NNE 3.2 mph 4.6 mph 80 % 0.01 in
23:37 41.2 °F 35.5 °F 30.02 in NNE 6.3 mph 10.4 mph 80 % 0.01 in
23:42 41.2 °F 35.2 °F 30.03 in North 4.3 mph 10.4 mph 79 % 0.01 in
23:47 41.3 °F 35.0 °F 30.03 in North 4.7 mph 10.4 mph 78 % 0.01 in
23:52 41.3 °F 35.3 °F 30.02 in NNE 6.4 mph 10.4 mph 79 % 0.01 in
23:58 41.3 °F 35.6 °F 30.02 in NNE 6.6 mph 6.9 mph 80 % 0.01 in
Crab Meadow Weather
Compliments of Weather Underground - 2.75 mb

Script developed by  Jim McMurry - jmcmurry@mwt.net Adapted for the template by  Wim van der Kuil - Leuven-Template.eu

Weather Terms: Heavy Sleet Warning - Accumulations of 1/2 inch or more of sleet.